sensor_id;sensor_type;location;lat;lon;timestamp;P1;durP1;ratioP1;P2;durP2;ratioP2
51943;SDS011;37969;53.132;6.370;2023-03-01T00:01:58;53.90;;;26.33;;
51943;SDS011;37969;53.132;6.370;2023-03-01T00:04:25;52.50;;;27.45;;
51943;SDS011;37969;53.132;6.370;2023-03-01T00:06:52;51.08;;;28.67;;
51943;SDS011;37969;53.132;6.370;2023-03-01T00:09:18;42.30;;;26.08;;
51943;SDS011;37969;53.132;6.370;2023-03-01T00:11:44;45.75;;;27.13;;
51943;SDS011;37969;53.132;6.370;2023-03-01T00:14:10;41.28;;;24.40;;
51943;SDS011;37969;53.132;6.370;2023-03-01T00:16:38;36.90;;;22.60;;
51943;SDS011;37969;53.132;6.370;2023-03-01T00:19:05;35.47;;;20.20;;
51943;SDS011;37969;53.132;6.370;2023-03-01T00:21:31;35.90;;;21.10;;
51943;SDS011;37969;53.132;6.370;2023-03-01T00:24:00;46.28;;;24.52;;
51943;SDS011;37969;53.132;6.370;2023-03-01T00:26:26;36.58;;;21.38;;
51943;SDS011;37969;53.132;6.370;2023-03-01T00:28:53;43.35;;;24.23;;
51943;SDS011;37969;53.132;6.370;2023-03-01T00:31:22;39.80;;;23.67;;
51943;SDS011;37969;53.132;6.370;2023-03-01T00:33:51;39.95;;;23.30;;
51943;SDS011;37969;53.132;6.370;2023-03-01T00:36:18;35.70;;;21.65;;
51943;SDS011;37969;53.132;6.370;2023-03-01T00:38:45;34.05;;;21.77;;
51943;SDS011;37969;53.132;6.370;2023-03-01T00:41:12;32.50;;;20.52;;
51943;SDS011;37969;53.132;6.370;2023-03-01T00:43:39;40.33;;;22.75;;
51943;SDS011;37969;53.132;6.370;2023-03-01T00:46:06;41.65;;;23.52;;
51943;SDS011;37969;53.132;6.370;2023-03-01T00:48:33;35.95;;;21.80;;
51943;SDS011;37969;53.132;6.370;2023-03-01T00:51:04;39.38;;;21.45;;
51943;SDS011;37969;53.132;6.370;2023-03-01T00:53:30;35.58;;;21.15;;
51943;SDS011;37969;53.132;6.370;2023-03-01T00:55:57;32.75;;;20.25;;
51943;SDS011;37969;53.132;6.370;2023-03-01T00:58:23;37.03;;;22.33;;
51943;SDS011;37969;53.132;6.370;2023-03-01T01:00:50;36.40;;;22.55;;
51943;SDS011;37969;53.132;6.370;2023-03-01T01:03:17;39.28;;;23.45;;
51943;SDS011;37969;53.132;6.370;2023-03-01T01:05:44;36.85;;;22.75;;
51943;SDS011;37969;53.132;6.370;2023-03-01T01:08:10;41.83;;;22.02;;
51943;SDS011;37969;53.132;6.370;2023-03-01T01:10:36;70.07;;;34.80;;
51943;SDS011;37969;53.132;6.370;2023-03-01T01:13:02;95.65;;;34.75;;
51943;SDS011;37969;53.132;6.370;2023-03-01T01:15:29;363.63;;;47.78;;
51943;SDS011;37969;53.132;6.370;2023-03-01T01:17:55;404.77;;;47.55;;
51943;SDS011;37969;53.132;6.370;2023-03-01T01:20:21;625.60;;;65.43;;
51943;SDS011;37969;53.132;6.370;2023-03-01T01:22:47;393.17;;;45.53;;
51943;SDS011;37969;53.132;6.370;2023-03-01T01:25:14;193.95;;;33.97;;
51943;SDS011;37969;53.132;6.370;2023-03-01T01:27:40;346.73;;;38.85;;
51943;SDS011;37969;53.132;6.370;2023-03-01T01:30:06;167.05;;;33.55;;
51943;SDS011;37969;53.132;6.370;2023-03-01T01:32:32;160.02;;;36.75;;
51943;SDS011;37969;53.132;6.370;2023-03-01T01:34:58;199.68;;;43.63;;
51943;SDS011;37969;53.132;6.370;2023-03-01T01:37:25;214.50;;;44.67;;
51943;SDS011;37969;53.132;6.370;2023-03-01T01:39:57;189.40;;;44.80;;
51943;SDS011;37969;53.132;6.370;2023-03-01T01:42:24;268.20;;;45.40;;
51943;SDS011;37969;53.132;6.370;2023-03-01T01:47:35;213.88;;;28.65;;
51943;SDS011;37969;53.132;6.370;2023-03-01T01:50:02;210.77;;;26.98;;
51943;SDS011;37969;53.132;6.370;2023-03-01T01:52:30;136.43;;;22.85;;
51943;SDS011;37969;53.132;6.370;2023-03-01T01:54:58;184.82;;;26.73;;
51943;SDS011;37969;53.132;6.370;2023-03-01T01:57:27;270.80;;;30.08;;
51943;SDS011;37969;53.132;6.370;2023-03-01T02:02:21;155.02;;;40.78;;
51943;SDS011;37969;53.132;6.370;2023-03-01T02:04:48;107.10;;;20.92;;
51943;SDS011;37969;53.132;6.370;2023-03-01T02:07:17;152.32;;;21.63;;
51943;SDS011;37969;53.132;6.370;2023-03-01T02:09:45;78.75;;;22.27;;
51943;SDS011;37969;53.132;6.370;2023-03-01T02:12:12;79.53;;;33.33;;
51943;SDS011;37969;53.132;6.370;2023-03-01T02:14:39;125.78;;;31.98;;
51943;SDS011;37969;53.132;6.370;2023-03-01T02:17:05;263.42;;;30.13;;
51943;SDS011;37969;53.132;6.370;2023-03-01T02:19:39;469.27;;;35.38;;
51943;SDS011;37969;53.132;6.370;2023-03-01T02:22:13;529.08;;;36.42;;
51943;SDS011;37969;53.132;6.370;2023-03-01T02:24:48;710.38;;;178.45;;
51943;SDS011;37969;53.132;6.370;2023-03-01T02:27:16;580.42;;;76.57;;
51943;SDS011;37969;53.132;6.370;2023-03-01T02:29:43;564.60;;;44.72;;
51943;SDS011;37969;53.132;6.370;2023-03-01T02:32:09;430.92;;;32.42;;
51943;SDS011;37969;53.132;6.370;2023-03-01T02:34:37;460.45;;;40.00;;
51943;SDS011;37969;53.132;6.370;2023-03-01T02:37:07;275.85;;;29.80;;
51943;SDS011;37969;53.132;6.370;2023-03-01T02:39:37;218.82;;;25.75;;
51943;SDS011;37969;53.132;6.370;2023-03-01T02:42:06;337.95;;;33.65;;
51943;SDS011;37969;53.132;6.370;2023-03-01T02:44:33;395.20;;;33.55;;
51943;SDS011;37969;53.132;6.370;2023-03-01T02:47:00;331.83;;;29.75;;
51943;SDS011;37969;53.132;6.370;2023-03-01T02:49:29;259.88;;;26.27;;
51943;SDS011;37969;53.132;6.370;2023-03-01T02:56:53;461.55;;;45.83;;
51943;SDS011;37969;53.132;6.370;2023-03-01T02:59:21;284.95;;;31.27;;
51943;SDS011;37969;53.132;6.370;2023-03-01T03:01:48;268.20;;;33.70;;
51943;SDS011;37969;53.132;6.370;2023-03-01T03:04:15;242.25;;;47.42;;
51943;SDS011;37969;53.132;6.370;2023-03-01T03:06:43;311.90;;;60.65;;
51943;SDS011;37969;53.132;6.370;2023-03-01T03:09:10;282.20;;;40.17;;
51943;SDS011;37969;53.132;6.370;2023-03-01T03:11:36;165.32;;;29.55;;
51943;SDS011;37969;53.132;6.370;2023-03-01T03:14:04;143.07;;;30.17;;
51943;SDS011;37969;53.132;6.370;2023-03-01T03:16:30;163.20;;;27.88;;
51943;SDS011;37969;53.132;6.370;2023-03-01T03:18:57;251.80;;;34.38;;
51943;SDS011;37969;53.132;6.370;2023-03-01T03:21:30;103.30;;;24.75;;
51943;SDS011;37969;53.132;6.370;2023-03-01T03:23:57;380.73;;;37.90;;
51943;SDS011;37969;53.132;6.370;2023-03-01T03:26:24;296.80;;;42.90;;
51943;SDS011;37969;53.132;6.370;2023-03-01T03:28:50;332.55;;;85.60;;
51943;SDS011;37969;53.132;6.370;2023-03-01T03:31:17;281.02;;;52.78;;
51943;SDS011;37969;53.132;6.370;2023-03-01T03:33:43;181.18;;;32.63;;
51943;SDS011;37969;53.132;6.370;2023-03-01T03:36:09;138.95;;;28.85;;
51943;SDS011;37969;53.132;6.370;2023-03-01T03:38:38;234.60;;;25.92;;
51943;SDS011;37969;53.132;6.370;2023-03-01T03:41:05;383.52;;;31.30;;
51943;SDS011;37969;53.132;6.370;2023-03-01T03:43:34;426.10;;;35.47;;
51943;SDS011;37969;53.132;6.370;2023-03-01T03:46:00;211.85;;;26.83;;
51943;SDS011;37969;53.132;6.370;2023-03-01T03:48:31;224.15;;;29.98;;
51943;SDS011;37969;53.132;6.370;2023-03-01T03:50:58;291.02;;;32.83;;
51943;SDS011;37969;53.132;6.370;2023-03-01T03:53:25;208.80;;;30.27;;
51943;SDS011;37969;53.132;6.370;2023-03-01T03:55:52;229.35;;;28.88;;
51943;SDS011;37969;53.132;6.370;2023-03-01T03:58:19;204.85;;;26.00;;
51943;SDS011;37969;53.132;6.370;2023-03-01T04:00:47;119.97;;;24.95;;
51943;SDS011;37969;53.132;6.370;2023-03-01T04:03:14;113.00;;;28.77;;
51943;SDS011;37969;53.132;6.370;2023-03-01T04:05:41;188.77;;;24.65;;
51943;SDS011;37969;53.132;6.370;2023-03-01T04:08:07;138.95;;;25.48;;
51943;SDS011;37969;53.132;6.370;2023-03-01T04:10:36;124.13;;;24.20;;
51943;SDS011;37969;53.132;6.370;2023-03-01T04:13:03;108.32;;;26.42;;
51943;SDS011;37969;53.132;6.370;2023-03-01T04:15:30;100.57;;;26.60;;
51943;SDS011;37969;53.132;6.370;2023-03-01T04:17:57;215.65;;;30.30;;
51943;SDS011;37969;53.132;6.370;2023-03-01T04:20:25;109.28;;;31.08;;
51943;SDS011;37969;53.132;6.370;2023-03-01T04:23:08;81.82;;;27.02;;
51943;SDS011;37969;53.132;6.370;2023-03-01T04:25:39;91.47;;;25.17;;
51943;SDS011;37969;53.132;6.370;2023-03-01T04:28:05;118.18;;;25.60;;
51943;SDS011;37969;53.132;6.370;2023-03-01T04:30:31;442.33;;;40.08;;
51943;SDS011;37969;53.132;6.370;2023-03-01T04:33:03;162.18;;;29.98;;
51943;SDS011;37969;53.132;6.370;2023-03-01T04:35:30;68.35;;;22.10;;
51943;SDS011;37969;53.132;6.370;2023-03-01T04:37:56;235.23;;;24.02;;
51943;SDS011;37969;53.132;6.370;2023-03-01T04:40:22;276.77;;;27.02;;
51943;SDS011;37969;53.132;6.370;2023-03-01T04:42:48;313.23;;;28.65;;
51943;SDS011;37969;53.132;6.370;2023-03-01T04:45:14;254.65;;;27.13;;
51943;SDS011;37969;53.132;6.370;2023-03-01T04:47:41;287.00;;;29.05;;
51943;SDS011;37969;53.132;6.370;2023-03-01T04:50:08;175.63;;;25.92;;
51943;SDS011;37969;53.132;6.370;2023-03-01T04:52:35;308.00;;;32.42;;
51943;SDS011;37969;53.132;6.370;2023-03-01T04:55:01;206.68;;;27.88;;
51943;SDS011;37969;53.132;6.370;2023-03-01T04:57:29;162.05;;;26.77;;
51943;SDS011;37969;53.132;6.370;2023-03-01T04:59:55;92.75;;;20.13;;
51943;SDS011;37969;53.132;6.370;2023-03-01T05:02:21;318.58;;;33.35;;
51943;SDS011;37969;53.132;6.370;2023-03-01T05:04:47;82.97;;;18.83;;
51943;SDS011;37969;53.132;6.370;2023-03-01T05:07:13;106.80;;;22.50;;
51943;SDS011;37969;53.132;6.370;2023-03-01T05:09:45;122.72;;;23.75;;
51943;SDS011;37969;53.132;6.370;2023-03-01T05:12:12;80.55;;;21.13;;
51943;SDS011;37969;53.132;6.370;2023-03-01T05:14:39;64.25;;;18.27;;
51943;SDS011;37969;53.132;6.370;2023-03-01T05:17:05;127.35;;;24.75;;
51943;SDS011;37969;53.132;6.370;2023-03-01T05:19:31;144.75;;;24.88;;
51943;SDS011;37969;53.132;6.370;2023-03-01T05:21:58;126.90;;;24.48;;
51943;SDS011;37969;53.132;6.370;2023-03-01T05:24:29;128.20;;;22.60;;
51943;SDS011;37969;53.132;6.370;2023-03-01T05:26:55;143.85;;;22.75;;
51943;SDS011;37969;53.132;6.370;2023-03-01T05:29:22;151.93;;;25.70;;
51943;SDS011;37969;53.132;6.370;2023-03-01T05:31:51;222.45;;;28.65;;
51943;SDS011;37969;53.132;6.370;2023-03-01T05:34:18;130.45;;;24.00;;
51943;SDS011;37969;53.132;6.370;2023-03-01T05:36:47;183.10;;;27.98;;
51943;SDS011;37969;53.132;6.370;2023-03-01T05:39:16;214.30;;;28.88;;
51943;SDS011;37969;53.132;6.370;2023-03-01T05:41:42;209.60;;;28.70;;
51943;SDS011;37969;53.132;6.370;2023-03-01T05:44:08;148.20;;;25.02;;
51943;SDS011;37969;53.132;6.370;2023-03-01T05:46:36;209.32;;;31.63;;
51943;SDS011;37969;53.132;6.370;2023-03-01T05:49:02;85.95;;;21.48;;
51943;SDS011;37969;53.132;6.370;2023-03-01T05:51:29;223.02;;;27.45;;
51943;SDS011;37969;53.132;6.370;2023-03-01T05:53:55;169.07;;;23.60;;
51943;SDS011;37969;53.132;6.370;2023-03-01T05:56:21;171.80;;;23.52;;
51943;SDS011;37969;53.132;6.370;2023-03-01T05:58:48;131.02;;;22.83;;
51943;SDS011;37969;53.132;6.370;2023-03-01T06:01:15;58.63;;;22.48;;
51943;SDS011;37969;53.132;6.370;2023-03-01T06:03:41;52.42;;;24.10;;
51943;SDS011;37969;53.132;6.370;2023-03-01T06:06:07;62.53;;;29.23;;
51943;SDS011;37969;53.132;6.370;2023-03-01T06:08:33;112.40;;;36.95;;
51943;SDS011;37969;53.132;6.370;2023-03-01T06:10:59;75.07;;;30.35;;
51943;SDS011;37969;53.132;6.370;2023-03-01T06:13:26;60.33;;;25.98;;
51943;SDS011;37969;53.132;6.370;2023-03-01T06:15:52;42.03;;;22.63;;
51943;SDS011;37969;53.132;6.370;2023-03-01T06:18:18;42.03;;;22.60;;
51943;SDS011;37969;53.132;6.370;2023-03-01T06:20:44;41.20;;;22.63;;
51943;SDS011;37969;53.132;6.370;2023-03-01T06:23:11;42.58;;;23.77;;
51943;SDS011;37969;53.132;6.370;2023-03-01T06:25:37;42.45;;;25.20;;
51943;SDS011;37969;53.132;6.370;2023-03-01T06:28:03;40.05;;;24.10;;
51943;SDS011;37969;53.132;6.370;2023-03-01T06:30:29;38.05;;;22.13;;
51943;SDS011;37969;53.132;6.370;2023-03-01T06:32:55;40.30;;;22.98;;
51943;SDS011;37969;53.132;6.370;2023-03-01T06:35:25;38.63;;;22.98;;
51943;SDS011;37969;53.132;6.370;2023-03-01T06:37:55;40.58;;;23.13;;
51943;SDS011;37969;53.132;6.370;2023-03-01T06:40:21;37.78;;;21.83;;
51943;SDS011;37969;53.132;6.370;2023-03-01T06:42:48;37.65;;;21.27;;
51943;SDS011;37969;53.132;6.370;2023-03-01T06:45:14;37.75;;;21.30;;
51943;SDS011;37969;53.132;6.370;2023-03-01T06:47:41;35.38;;;20.90;;
51943;SDS011;37969;53.132;6.370;2023-03-01T06:50:07;33.90;;;20.52;;
51943;SDS011;37969;53.132;6.370;2023-03-01T06:52:34;31.42;;;19.70;;
51943;SDS011;37969;53.132;6.370;2023-03-01T06:55:00;31.63;;;20.30;;
51943;SDS011;37969;53.132;6.370;2023-03-01T06:57:27;32.72;;;20.08;;
51943;SDS011;37969;53.132;6.370;2023-03-01T06:59:53;28.33;;;19.23;;
51943;SDS011;37969;53.132;6.370;2023-03-01T07:02:19;32.03;;;20.42;;
51943;SDS011;37969;53.132;6.370;2023-03-01T07:04:45;31.70;;;21.02;;
51943;SDS011;37969;53.132;6.370;2023-03-01T07:07:11;30.85;;;20.38;;
51943;SDS011;37969;53.132;6.370;2023-03-01T07:09:38;31.33;;;19.42;;
51943;SDS011;37969;53.132;6.370;2023-03-01T07:12:04;28.65;;;19.00;;
51943;SDS011;37969;53.132;6.370;2023-03-01T07:14:30;29.92;;;19.17;;
51943;SDS011;37969;53.132;6.370;2023-03-01T07:16:56;29.45;;;19.80;;
51943;SDS011;37969;53.132;6.370;2023-03-01T07:19:22;30.67;;;19.60;;
51943;SDS011;37969;53.132;6.370;2023-03-01T07:21:49;28.65;;;19.30;;
51943;SDS011;37969;53.132;6.370;2023-03-01T07:24:15;30.08;;;19.85;;
51943;SDS011;37969;53.132;6.370;2023-03-01T07:26:41;29.02;;;19.95;;
51943;SDS011;37969;53.132;6.370;2023-03-01T07:29:07;30.90;;;20.42;;
51943;SDS011;37969;53.132;6.370;2023-03-01T07:31:35;32.47;;;20.77;;
51943;SDS011;37969;53.132;6.370;2023-03-01T07:34:02;33.95;;;20.80;;
51943;SDS011;37969;53.132;6.370;2023-03-01T07:36:28;33.78;;;21.92;;
51943;SDS011;37969;53.132;6.370;2023-03-01T07:38:54;36.40;;;22.42;;
51943;SDS011;37969;53.132;6.370;2023-03-01T07:41:20;32.95;;;21.70;;
51943;SDS011;37969;53.132;6.370;2023-03-01T07:43:47;36.67;;;22.70;;
51943;SDS011;37969;53.132;6.370;2023-03-01T07:46:13;36.42;;;22.77;;
51943;SDS011;37969;53.132;6.370;2023-03-01T07:48:39;36.40;;;22.33;;
51943;SDS011;37969;53.132;6.370;2023-03-01T07:51:05;34.38;;;21.95;;
51943;SDS011;37969;53.132;6.370;2023-03-01T07:53:32;36.75;;;22.40;;
51943;SDS011;37969;53.132;6.370;2023-03-01T07:56:01;56.05;;;31.27;;
51943;SDS011;37969;53.132;6.370;2023-03-01T07:58:27;70.28;;;35.53;;
51943;SDS011;37969;53.132;6.370;2023-03-01T08:00:53;64.82;;;34.08;;
51943;SDS011;37969;53.132;6.370;2023-03-01T08:03:19;61.20;;;34.33;;
51943;SDS011;37969;53.132;6.370;2023-03-01T08:05:46;61.65;;;33.47;;
51943;SDS011;37969;53.132;6.370;2023-03-01T08:08:12;55.10;;;32.78;;
51943;SDS011;37969;53.132;6.370;2023-03-01T08:10:38;49.17;;;29.67;;
51943;SDS011;37969;53.132;6.370;2023-03-01T08:13:04;68.47;;;38.63;;
51943;SDS011;37969;53.132;6.370;2023-03-01T08:15:31;61.58;;;34.47;;
51943;SDS011;37969;53.132;6.370;2023-03-01T08:17:57;59.78;;;36.13;;
51943;SDS011;37969;53.132;6.370;2023-03-01T08:20:23;75.82;;;40.90;;
51943;SDS011;37969;53.132;6.370;2023-03-01T08:22:49;67.55;;;39.15;;
51943;SDS011;37969;53.132;6.370;2023-03-01T08:25:16;57.13;;;34.70;;
51943;SDS011;37969;53.132;6.370;2023-03-01T08:27:42;50.90;;;31.65;;
51943;SDS011;37969;53.132;6.370;2023-03-01T08:30:08;49.83;;;30.77;;
51943;SDS011;37969;53.132;6.370;2023-03-01T08:32:35;45.80;;;28.13;;
51943;SDS011;37969;53.132;6.370;2023-03-01T08:35:02;42.30;;;29.20;;
51943;SDS011;37969;53.132;6.370;2023-03-01T08:37:28;51.22;;;32.47;;
51943;SDS011;37969;53.132;6.370;2023-03-01T08:39:56;49.35;;;31.48;;
51943;SDS011;37969;53.132;6.370;2023-03-01T08:42:22;55.63;;;33.65;;
51943;SDS011;37969;53.132;6.370;2023-03-01T08:44:48;61.80;;;35.75;;
51943;SDS011;37969;53.132;6.370;2023-03-01T08:47:14;58.15;;;35.03;;
51943;SDS011;37969;53.132;6.370;2023-03-01T08:49:40;59.13;;;35.22;;
51943;SDS011;37969;53.132;6.370;2023-03-01T08:52:06;59.88;;;36.85;;
51943;SDS011;37969;53.132;6.370;2023-03-01T08:54:33;59.60;;;37.25;;
51943;SDS011;37969;53.132;6.370;2023-03-01T08:57:01;54.20;;;35.38;;
51943;SDS011;37969;53.132;6.370;2023-03-01T08:59:27;57.97;;;36.83;;
51943;SDS011;37969;53.132;6.370;2023-03-01T09:01:55;62.30;;;36.47;;
51943;SDS011;37969;53.132;6.370;2023-03-01T09:04:21;58.83;;;35.10;;
51943;SDS011;37969;53.132;6.370;2023-03-01T09:06:47;60.17;;;36.05;;
51943;SDS011;37969;53.132;6.370;2023-03-01T09:09:14;61.47;;;35.85;;
51943;SDS011;37969;53.132;6.370;2023-03-01T09:11:41;56.58;;;36.08;;
51943;SDS011;37969;53.132;6.370;2023-03-01T09:14:08;57.42;;;36.22;;
51943;SDS011;37969;53.132;6.370;2023-03-01T09:16:34;60.40;;;36.92;;
51943;SDS011;37969;53.132;6.370;2023-03-01T09:19:01;58.30;;;34.53;;
51943;SDS011;37969;53.132;6.370;2023-03-01T09:21:27;56.15;;;33.88;;
51943;SDS011;37969;53.132;6.370;2023-03-01T09:23:55;51.35;;;32.90;;
51943;SDS011;37969;53.132;6.370;2023-03-01T09:26:21;50.25;;;33.38;;
51943;SDS011;37969;53.132;6.370;2023-03-01T09:28:49;47.13;;;31.67;;
51943;SDS011;37969;53.132;6.370;2023-03-01T09:31:16;50.13;;;31.23;;
51943;SDS011;37969;53.132;6.370;2023-03-01T09:33:45;51.35;;;34.10;;
51943;SDS011;37969;53.132;6.370;2023-03-01T09:38:37;51.03;;;32.15;;
51943;SDS011;37969;53.132;6.370;2023-03-01T09:41:09;45.00;;;31.55;;
51943;SDS011;37969;53.132;6.370;2023-03-01T09:43:46;46.97;;;31.05;;
51943;SDS011;37969;53.132;6.370;2023-03-01T09:46:14;44.95;;;31.42;;
51943;SDS011;37969;53.132;6.370;2023-03-01T09:48:46;43.20;;;28.58;;
51943;SDS011;37969;53.132;6.370;2023-03-01T09:51:17;42.58;;;28.13;;
51943;SDS011;37969;53.132;6.370;2023-03-01T09:53:44;43.72;;;28.40;;
51943;SDS011;37969;53.132;6.370;2023-03-01T09:56:19;41.35;;;26.38;;
51943;SDS011;37969;53.132;6.370;2023-03-01T09:58:49;39.17;;;26.10;;
51943;SDS011;37969;53.132;6.370;2023-03-01T10:01:38;36.47;;;25.45;;
51943;SDS011;37969;53.132;6.370;2023-03-01T10:06:40;37.88;;;26.00;;
51943;SDS011;37969;53.132;6.370;2023-03-01T10:11:39;33.72;;;22.98;;
51943;SDS011;37969;53.132;6.370;2023-03-01T10:16:52;30.88;;;19.42;;
51943;SDS011;37969;53.132;6.370;2023-03-01T10:19:22;28.35;;;19.08;;
51943;SDS011;37969;53.132;6.370;2023-03-01T10:21:48;26.83;;;18.00;;
51943;SDS011;37969;53.132;6.370;2023-03-01T10:24:17;29.27;;;19.38;;
51943;SDS011;37969;53.132;6.370;2023-03-01T10:29:13;24.67;;;18.33;;
51943;SDS011;37969;53.132;6.370;2023-03-01T10:31:41;28.27;;;18.13;;
51943;SDS011;37969;53.132;6.370;2023-03-01T10:34:10;28.83;;;18.92;;
51943;SDS011;37969;53.132;6.370;2023-03-01T10:36:36;25.67;;;17.90;;
51943;SDS011;37969;53.132;6.370;2023-03-01T10:39:11;24.00;;;18.48;;
51943;SDS011;37969;53.132;6.370;2023-03-01T10:41:40;27.55;;;19.63;;
51943;SDS011;37969;53.132;6.370;2023-03-01T10:44:10;21.45;;;16.83;;
51943;SDS011;37969;53.132;6.370;2023-03-01T10:47:02;24.45;;;17.63;;
51943;SDS011;37969;53.132;6.370;2023-03-01T10:49:29;24.08;;;18.25;;
51943;SDS011;37969;53.132;6.370;2023-03-01T10:51:55;24.25;;;18.80;;
51943;SDS011;37969;53.132;6.370;2023-03-01T10:54:22;22.73;;;18.63;;
51943;SDS011;37969;53.132;6.370;2023-03-01T10:56:50;26.75;;;18.83;;
51943;SDS011;37969;53.132;6.370;2023-03-01T10:59:20;26.45;;;17.50;;
51943;SDS011;37969;53.132;6.370;2023-03-01T11:01:49;24.50;;;17.83;;
51943;SDS011;37969;53.132;6.370;2023-03-01T11:04:26;24.67;;;19.27;;
51943;SDS011;37969;53.132;6.370;2023-03-01T11:06:58;23.13;;;17.40;;
51943;SDS011;37969;53.132;6.370;2023-03-01T11:09:24;22.55;;;16.33;;
51943;SDS011;37969;53.132;6.370;2023-03-01T11:11:56;21.58;;;16.85;;
51943;SDS011;37969;53.132;6.370;2023-03-01T11:14:23;24.25;;;16.73;;
51943;SDS011;37969;53.132;6.370;2023-03-01T11:16:58;24.67;;;17.92;;
51943;SDS011;37969;53.132;6.370;2023-03-01T11:19:25;24.23;;;16.00;;
51943;SDS011;37969;53.132;6.370;2023-03-01T11:24:17;19.52;;;14.98;;
51943;SDS011;37969;53.132;6.370;2023-03-01T11:26:45;18.02;;;14.45;;
51943;SDS011;37969;53.132;6.370;2023-03-01T11:32:00;20.25;;;15.63;;
51943;SDS011;37969;53.132;6.370;2023-03-01T11:34:33;20.47;;;12.83;;
51943;SDS011;37969;53.132;6.370;2023-03-01T11:37:02;17.05;;;12.25;;
51943;SDS011;37969;53.132;6.370;2023-03-01T11:39:38;20.00;;;13.55;;
51943;SDS011;37969;53.132;6.370;2023-03-01T11:42:09;21.38;;;14.77;;
51943;SDS011;37969;53.132;6.370;2023-03-01T11:44:36;22.05;;;15.93;;
51943;SDS011;37969;53.132;6.370;2023-03-01T11:47:13;20.73;;;16.77;;
51943;SDS011;37969;53.132;6.370;2023-03-01T11:52:29;21.25;;;15.43;;
51943;SDS011;37969;53.132;6.370;2023-03-01T11:55:05;20.08;;;16.15;;
51943;SDS011;37969;53.132;6.370;2023-03-01T12:00:16;23.58;;;16.30;;
51943;SDS011;37969;53.132;6.370;2023-03-01T12:10:26;20.08;;;15.18;;
51943;SDS011;37969;53.132;6.370;2023-03-01T12:13:02;22.25;;;16.83;;
51943;SDS011;37969;53.132;6.370;2023-03-01T12:15:35;22.23;;;15.38;;
51943;SDS011;37969;53.132;6.370;2023-03-01T12:20:56;20.60;;;13.23;;
51943;SDS011;37969;53.132;6.370;2023-03-01T12:25:58;21.17;;;14.77;;
51943;SDS011;37969;53.132;6.370;2023-03-01T12:28:35;19.17;;;13.88;;
51943;SDS011;37969;53.132;6.370;2023-03-01T12:33:45;18.45;;;14.00;;
51943;SDS011;37969;53.132;6.370;2023-03-01T12:36:19;17.15;;;14.57;;
51943;SDS011;37969;53.132;6.370;2023-03-01T12:38:50;24.25;;;15.30;;
51943;SDS011;37969;53.132;6.370;2023-03-01T12:41:21;22.30;;;16.23;;
51943;SDS011;37969;53.132;6.370;2023-03-01T12:46:34;22.27;;;16.20;;
51943;SDS011;37969;53.132;6.370;2023-03-01T12:51:30;21.65;;;16.52;;
51943;SDS011;37969;53.132;6.370;2023-03-01T12:53:57;22.73;;;16.35;;
51943;SDS011;37969;53.132;6.370;2023-03-01T12:56:28;21.90;;;16.55;;
51943;SDS011;37969;53.132;6.370;2023-03-01T13:01:33;19.63;;;15.18;;
51943;SDS011;37969;53.132;6.370;2023-03-01T13:04:03;19.40;;;14.48;;
51943;SDS011;37969;53.132;6.370;2023-03-01T13:11:25;22.63;;;13.52;;
51943;SDS011;37969;53.132;6.370;2023-03-01T13:13:52;18.48;;;14.65;;
51943;SDS011;37969;53.132;6.370;2023-03-01T13:16:21;19.13;;;14.40;;
51943;SDS011;37969;53.132;6.370;2023-03-01T13:18:48;17.88;;;13.52;;
51943;SDS011;37969;53.132;6.370;2023-03-01T13:21:15;16.13;;;13.23;;
51943;SDS011;37969;53.132;6.370;2023-03-01T13:26:20;19.25;;;14.20;;
51943;SDS011;37969;53.132;6.370;2023-03-01T13:28:48;18.85;;;13.93;;
51943;SDS011;37969;53.132;6.370;2023-03-01T13:36:11;17.85;;;14.65;;
51943;SDS011;37969;53.132;6.370;2023-03-01T13:38:44;19.25;;;13.90;;
51943;SDS011;37969;53.132;6.370;2023-03-01T13:41:12;18.33;;;14.18;;
51943;SDS011;37969;53.132;6.370;2023-03-01T13:43:40;18.17;;;14.30;;
51943;SDS011;37969;53.132;6.370;2023-03-01T13:46:08;19.15;;;14.35;;
51943;SDS011;37969;53.132;6.370;2023-03-01T13:48:36;19.45;;;13.40;;
51943;SDS011;37969;53.132;6.370;2023-03-01T13:51:05;19.58;;;14.27;;
51943;SDS011;37969;53.132;6.370;2023-03-01T13:53:34;17.77;;;13.98;;
51943;SDS011;37969;53.132;6.370;2023-03-01T13:56:02;17.00;;;13.95;;
51943;SDS011;37969;53.132;6.370;2023-03-01T13:58:29;20.38;;;14.43;;
51943;SDS011;37969;53.132;6.370;2023-03-01T14:03:22;18.63;;;14.25;;
51943;SDS011;37969;53.132;6.370;2023-03-01T14:08:34;14.75;;;12.80;;
51943;SDS011;37969;53.132;6.370;2023-03-01T14:11:08;16.50;;;13.05;;
51943;SDS011;37969;53.132;6.370;2023-03-01T14:13:45;17.73;;;14.27;;
51943;SDS011;37969;53.132;6.370;2023-03-01T14:21:30;17.90;;;14.10;;
51943;SDS011;37969;53.132;6.370;2023-03-01T14:23:57;16.35;;;13.27;;
51943;SDS011;37969;53.132;6.370;2023-03-01T14:26:24;16.55;;;14.45;;
51943;SDS011;37969;53.132;6.370;2023-03-01T14:28:50;16.23;;;13.77;;
51943;SDS011;37969;53.132;6.370;2023-03-01T14:31:31;15.45;;;13.27;;
51943;SDS011;37969;53.132;6.370;2023-03-01T14:33:58;14.15;;;11.45;;
51943;SDS011;37969;53.132;6.370;2023-03-01T14:36:26;15.90;;;13.23;;
51943;SDS011;37969;53.132;6.370;2023-03-01T14:38:52;14.70;;;13.15;;
51943;SDS011;37969;53.132;6.370;2023-03-01T14:41:21;16.17;;;12.75;;
51943;SDS011;37969;53.132;6.370;2023-03-01T14:43:52;15.05;;;13.55;;
51943;SDS011;37969;53.132;6.370;2023-03-01T14:46:21;15.68;;;12.38;;
51943;SDS011;37969;53.132;6.370;2023-03-01T14:48:50;12.98;;;11.57;;
51943;SDS011;37969;53.132;6.370;2023-03-01T14:51:17;18.25;;;12.27;;
51943;SDS011;37969;53.132;6.370;2023-03-01T14:53:43;14.95;;;12.95;;
51943;SDS011;37969;53.132;6.370;2023-03-01T14:56:15;14.50;;;12.98;;
51943;SDS011;37969;53.132;6.370;2023-03-01T14:58:43;14.68;;;12.73;;
51943;SDS011;37969;53.132;6.370;2023-03-01T15:01:13;14.15;;;12.75;;
51943;SDS011;37969;53.132;6.370;2023-03-01T15:03:41;16.73;;;13.48;;
51943;SDS011;37969;53.132;6.370;2023-03-01T15:06:09;14.25;;;12.65;;
51943;SDS011;37969;53.132;6.370;2023-03-01T15:08:37;18.70;;;14.70;;
51943;SDS011;37969;53.132;6.370;2023-03-01T15:13:33;17.83;;;15.10;;
51943;SDS011;37969;53.132;6.370;2023-03-01T15:16:06;18.65;;;15.55;;
51943;SDS011;37969;53.132;6.370;2023-03-01T15:18:33;17.70;;;15.85;;
51943;SDS011;37969;53.132;6.370;2023-03-01T15:21:09;17.67;;;15.77;;
51943;SDS011;37969;53.132;6.370;2023-03-01T15:23:36;19.02;;;16.42;;
51943;SDS011;37969;53.132;6.370;2023-03-01T15:26:05;19.10;;;17.02;;
51943;SDS011;37969;53.132;6.370;2023-03-01T15:28:34;22.00;;;16.85;;
51943;SDS011;37969;53.132;6.370;2023-03-01T15:31:02;22.88;;;17.55;;
51943;SDS011;37969;53.132;6.370;2023-03-01T15:33:33;24.42;;;17.60;;
51943;SDS011;37969;53.132;6.370;2023-03-01T15:36:00;19.10;;;16.25;;
51943;SDS011;37969;53.132;6.370;2023-03-01T15:41:01;19.27;;;16.15;;
51943;SDS011;37969;53.132;6.370;2023-03-01T15:46:15;21.63;;;16.75;;
51943;SDS011;37969;53.132;6.370;2023-03-01T15:48:45;23.67;;;18.13;;
51943;SDS011;37969;53.132;6.370;2023-03-01T15:51:12;18.70;;;16.10;;